Time;durP1;ratioP1;P1;durP2;ratioP2;P2;SDS_P1;SDS_P2;PMS_P1;PMS_P2;Temp;Humidity;BMP_temperature;BMP_pressure;BME280_temperature;BME280_humidity;BME280_pressure;Samples;Min_cycle;Max_cycle;Signal;HPM_P1;HPM_P2
2023/09/30 00:00:53;;;;;;;6.22;3.70;;;;;;;14.90;57.86;95227.66;5069181;28;20047;-75
2023/09/30 00:03:19;;;;;;;6.90;4.03;;;;;;;14.95;58.11;95228.06;5072270;28;20502;-75
2023/09/30 00:05:44;;;;;;;5.63;3.83;;;;;;;14.94;57.53;95221.19;5072166;28;20082;-75
2023/09/30 00:08:10;;;;;;;5.88;3.92;;;;;;;14.93;57.00;95199.44;5085511;28;20035;-75
2023/09/30 00:10:36;;;;;;;8.65;3.88;;;;;;;14.97;56.88;95220.91;5086922;28;20088;-75
2023/09/30 00:13:01;;;;;;;6.47;4.00;;;;;;;14.88;57.76;95208.69;5067461;28;20041;-75
2023/09/30 00:15:27;;;;;;;5.40;3.80;;;;;;;15.03;57.45;95209.84;5069988;28;20064;-75
2023/09/30 00:17:52;;;;;;;9.32;4.10;;;;;;;15.05;56.18;95215.78;5063558;28;20501;-75
2023/09/30 00:20:17;;;;;;;7.82;4.00;;;;;;;15.04;55.52;95219.34;5086543;28;20028;-75
2023/09/30 00:22:43;;;;;;;9.32;3.65;;;;;;;15.00;54.43;95191.03;5052894;28;20043;-75
2023/09/30 00:25:09;;;;;;;6.85;3.88;;;;;;;15.29;53.98;95217.84;5087388;28;20398;-75
2023/09/30 00:27:35;;;;;;;6.65;3.70;;;;;;;15.23;53.92;95207.16;5070278;28;20071;-75
2023/09/30 00:30:01;;;;;;;6.43;3.70;;;;;;;15.25;54.08;95211.28;5068208;28;20044;-75
2023/09/30 00:32:26;;;;;;;9.23;4.18;;;;;;;15.38;53.80;95195.22;5071076;28;20036;-75
2023/09/30 00:34:53;;;;;;;7.43;4.50;;;;;;;15.36;54.83;95205.84;5089207;28;20031;-75
2023/09/30 00:37:19;;;;;;;7.20;4.35;;;;;;;15.42;54.76;95199.19;5088530;28;20093;-75
2023/09/30 00:39:44;;;;;;;8.82;3.90;;;;;;;15.32;54.21;95195.78;5084130;28;20017;-75
2023/09/30 00:42:10;;;;;;;8.38;3.70;;;;;;;15.39;52.83;95196.88;5080127;28;20043;-75
2023/09/30 00:44:35;;;;;;;8.13;3.83;;;;;;;15.35;53.10;95200.72;5076282;28;20209;-75
2023/09/30 00:47:01;;;;;;;10.10;4.18;;;;;;;15.38;52.60;95196.06;5088081;28;20414;-75
2023/09/30 00:49:26;;;;;;;6.55;4.20;;;;;;;15.53;52.36;95200.78;5059821;28;20043;-75
2023/09/30 00:51:52;;;;;;;5.90;3.75;;;;;;;15.53;52.56;95187.69;5067603;28;20027;-75
2023/09/30 00:54:18;;;;;;;6.38;3.92;;;;;;;15.64;52.46;95198.75;5086906;28;20028;-75
2023/09/30 00:56:48;;;;;;;6.60;3.67;;;;;;;15.52;52.33;95171.16;5087703;28;20028;-75
2023/09/30 00:59:14;;;;;;;5.40;3.72;;;;;;;15.67;51.92;95197.66;5087976;28;20032;-75
2023/09/30 01:01:39;;;;;;;6.95;3.65;;;;;;;15.70;52.67;95193.94;5082402;28;20058;-74
2023/09/30 01:04:05;;;;;;;8.82;3.90;;;;;;;15.76;53.67;95204.63;5050001;28;20421;-74
2023/09/30 01:06:30;;;;;;;8.75;3.90;;;;;;;15.51;53.16;95169.50;5054327;28;20512;-75
2023/09/30 01:08:56;;;;;;;7.72;4.43;;;;;;;15.60;52.42;95193.97;5074619;28;20039;-75
2023/09/30 01:11:22;;;;;;;5.25;3.95;;;;;;;15.58;52.59;95199.34;5049039;28;20463;-75
2023/09/30 01:13:47;;;;;;;5.50;3.78;;;;;;;15.52;52.52;95197.34;5089304;28;20077;-75
2023/09/30 01:16:13;;;;;;;5.93;4.10;;;;;;;15.32;52.87;95170.47;5088096;28;20040;-75
2023/09/30 01:18:42;;;;;;;5.80;3.70;;;;;;;15.33;53.21;95179.97;5072300;28;20391;-75
2023/09/30 01:21:08;;;;;;;9.32;4.45;;;;;;;15.34;53.36;95196.47;5062674;28;20502;-75
2023/09/30 01:23:35;;;;;;;6.43;4.35;;;;;;;15.32;53.34;95185.31;5088852;28;20020;-75
2023/09/30 01:26:05;;;;;;;6.65;4.05;;;;;;;15.37;53.50;95194.38;5058978;28;20100;-75
2023/09/30 01:28:31;;;;;;;5.72;3.67;;;;;;;15.29;53.41;95177.78;5052326;28;20047;-75
2023/09/30 01:30:57;;;;;;;9.93;4.10;;;;;;;15.32;53.69;95196.66;5078124;28;20115;-74
2023/09/30 01:33:23;;;;;;;7.78;4.18;;;;;;;15.41;53.64;95200.16;5082911;28;20097;-74
2023/09/30 01:35:48;;;;;;;6.97;4.13;;;;;;;15.40;53.62;95193.28;5068975;28;20028;-75
2023/09/30 01:38:14;;;;;;;5.00;3.90;;;;;;;15.48;53.43;95192.53;5062471;28;20025;-75
2023/09/30 01:40:39;;;;;;;8.50;4.28;;;;;;;15.47;53.54;95194.34;5082870;28;20036;-74
2023/09/30 01:43:05;;;;;;;5.95;4.15;;;;;;;15.49;53.66;95191.56;5070615;28;20459;-75
2023/09/30 01:45:30;;;;;;;7.88;3.55;;;;;;;15.50;53.57;95183.56;5072365;28;20032;-75
2023/09/30 01:47:55;;;;;;;7.10;4.10;;;;;;;15.52;53.50;95181.63;5060817;28;20544;-75
2023/09/30 01:50:21;;;;;;;7.95;4.05;;;;;;;15.59;53.32;95174.81;5065999;28;20028;-75
2023/09/30 01:52:46;;;;;;;5.60;3.90;;;;;;;15.75;53.23;95191.69;5087821;28;20028;-75
2023/09/30 01:55:12;;;;;;;5.65;4.10;;;;;;;15.53;53.84;95183.28;5087765;28;20034;-75
2023/09/30 01:57:37;;;;;;;8.45;4.32;;;;;;;15.36;54.24;95163.13;5077059;28;20041;-75
2023/09/30 02:00:04;;;;;;;8.20;3.90;;;;;;;15.41;54.08;95177.44;5057945;28;20052;-75
2023/09/30 02:02:30;;;;;;;5.65;4.03;;;;;;;15.51;54.08;95179.16;5062468;28;20071;-75
2023/09/30 02:04:55;;;;;;;10.20;4.45;;;;;;;15.48;54.47;95177.66;5072162;28;20052;-75
2023/09/30 02:07:21;;;;;;;4.82;3.67;;;;;;;15.53;54.20;95180.66;5062519;28;20131;-75
2023/09/30 02:09:46;;;;;;;8.00;4.13;;;;;;;15.56;54.09;95177.72;5035373;28;20028;-75
2023/09/30 02:12:12;;;;;;;5.82;4.22;;;;;;;15.51;54.35;95168.69;5079815;28;20063;-75
2023/09/30 02:14:38;;;;;;;6.45;4.30;;;;;;;15.44;54.61;95168.47;5070041;28;20035;-75
2023/09/30 02:17:04;;;;;;;5.85;3.72;;;;;;;15.56;54.38;95175.13;5068720;28;20044;-75
2023/09/30 02:19:31;;;;;;;10.27;4.13;;;;;;;15.52;56.03;95178.19;5088641;28;20024;-75
2023/09/30 02:21:56;;;;;;;8.40;4.63;;;;;;;15.63;55.33;95168.31;5052607;28;20036;-75
2023/09/30 02:24:23;;;;;;;7.68;4.65;;;;;;;15.46;56.31;95177.00;5065492;28;20020;-75
2023/09/30 02:26:48;;;;;;;7.05;4.10;;;;;;;15.32;56.91;95169.63;5072425;28;20085;-75
2023/09/30 02:29:13;;;;;;;9.32;4.68;;;;;;;15.67;56.26;95173.25;5087454;28;20394;-75
2023/09/30 02:31:39;;;;;;;7.35;4.07;;;;;;;15.61;55.91;95177.28;5070976;28;20086;-75
2023/09/30 02:34:04;;;;;;;8.45;4.20;;;;;;;15.38;56.86;95179.53;5065572;28;20035;-75
2023/09/30 02:36:30;;;;;;;9.00;4.25;;;;;;;15.43;56.75;95177.25;5074895;28;20036;-74
2023/09/30 02:38:55;;;;;;;6.15;4.40;;;;;;;15.32;56.42;95180.94;5052207;28;20024;-74
2023/09/30 02:41:20;;;;;;;7.93;4.40;;;;;;;15.17;57.23;95182.38;5089900;28;20039;-74
2023/09/30 02:43:46;;;;;;;6.75;4.30;;;;;;;15.11;57.26;95175.94;5044188;28;20017;-74
2023/09/30 02:46:12;;;;;;;7.13;4.68;;;;;;;14.92;58.23;95194.34;5087109;28;20035;-74
2023/09/30 02:48:37;;;;;;;7.80;4.32;;;;;;;14.85;58.35;95188.88;5088059;28;20494;-74
2023/09/30 02:51:03;;;;;;;8.40;4.50;;;;;;;14.76;58.85;95189.72;5070174;28;20036;-74
2023/09/30 02:53:28;;;;;;;7.28;4.75;;;;;;;14.53;59.08;95161.31;5074769;28;20028;-74
2023/09/30 02:55:56;;;;;;;6.22;4.50;;;;;;;14.55;59.28;95191.75;5091763;28;20036;-74
2023/09/30 02:58:23;;;;;;;7.78;4.38;;;;;;;14.39;59.58;95171.38;5088018;28;20024;-74
2023/09/30 03:00:49;;;;;;;8.77;4.25;;;;;;;14.30;59.89;95184.34;5071689;28;20119;-74
2023/09/30 03:03:15;;;;;;;7.88;4.55;;;;;;;14.21;60.03;95182.56;5069779;28;20103;-74
2023/09/30 03:05:41;;;;;;;5.78;4.53;;;;;;;14.04;60.81;95164.97;5056776;28;20031;-74
2023/09/30 03:08:06;;;;;;;6.55;4.05;;;;;;;14.00;60.69;95187.13;5090070;28;20024;-74
2023/09/30 03:10:31;;;;;;;8.40;4.13;;;;;;;13.64;61.39;95179.03;5086417;28;20031;-74
2023/09/30 03:13:03;;;;;;;7.72;4.32;;;;;;;13.80;61.12;95187.13;5090778;28;20028;-74
2023/09/30 03:15:30;;;;;;;6.20;4.30;;;;;;;13.56;61.71;95158.00;5092499;28;20028;-74
2023/09/30 03:17:56;;;;;;;7.68;4.50;;;;;;;13.70;61.96;95190.69;5089921;28;20046;-74
2023/09/30 03:20:22;;;;;;;6.78;4.63;;;;;;;13.77;62.29;95187.41;5085113;28;20466;-74
2023/09/30 03:22:47;;;;;;;6.63;4.57;;;;;;;13.79;62.48;95182.88;5073352;28;20456;-74
2023/09/30 03:25:17;;;;;;;6.15;4.60;;;;;;;13.70;62.51;95194.13;5074480;28;20104;-74
2023/09/30 03:27:48;;;;;;;7.38;4.43;;;;;;;13.83;62.54;95191.25;5077315;28;20520;-74
2023/09/30 03:30:15;;;;;;;7.82;4.72;;;;;;;13.40;63.72;95193.28;5089300;28;20462;-74
2023/09/30 03:32:40;;;;;;;6.38;4.43;;;;;;;13.31;63.16;95144.50;5091458;28;20032;-74
2023/09/30 03:35:07;;;;;;;9.07;4.53;;;;;;;13.37;63.11;95167.47;5054001;28;20032;-74
2023/09/30 03:37:32;;;;;;;7.10;4.70;;;;;;;13.49;63.45;95180.41;5046203;28;20083;-75
2023/09/30 03:39:58;;;;;;;10.57;4.53;;;;;;;13.36;63.60;95149.34;5070915;28;20033;-75
2023/09/30 03:42:23;;;;;;;9.10;4.40;;;;;;;13.43;63.55;95163.50;5083762;28;20032;-75
2023/09/30 03:44:49;;;;;;;7.30;4.85;;;;;;;13.30;64.06;95184.63;5091237;28;20032;-75
2023/09/30 03:47:18;;;;;;;10.35;4.85;;;;;;;13.47;63.43;95170.09;5089771;28;20036;-75
2023/09/30 03:49:43;;;;;;;9.65;4.75;;;;;;;13.65;63.30;95180.69;5069481;28;20425;-75
2023/09/30 03:52:12;;;;;;;6.55;4.90;;;;;;;13.67;63.32;95183.16;5072023;28;20032;-74
2023/09/30 03:54:37;;;;;;;5.13;4.30;;;;;;;13.61;63.06;95171.47;5054027;28;20024;-74
2023/09/30 03:57:03;;;;;;;6.85;4.40;;;;;;;13.75;62.62;95176.28;5071297;28;20406;-74
2023/09/30 03:59:29;;;;;;;7.10;4.70;;;;;;;13.59;63.03;95176.00;5070493;28;20044;-75
2023/09/30 04:01:54;;;;;;;8.30;4.90;;;;;;;13.65;62.96;95183.31;5087586;28;20035;-75
2023/09/30 04:04:21;;;;;;;9.00;4.95;;;;;;;13.19;64.30;95189.91;5090695;28;20031;-75
2023/09/30 04:06:47;;;;;;;7.40;4.63;;;;;;;13.58;63.69;95190.84;5063578;28;20035;-75
2023/09/30 04:09:16;;;;;;;8.73;4.72;;;;;;;13.58;63.68;95203.06;5053899;28;20031;-75
2023/09/30 04:11:42;;;;;;;8.73;4.78;;;;;;;13.52;63.32;95187.94;5071061;28;20044;-75
2023/09/30 04:14:08;;;;;;;5.85;4.68;;;;;;;13.27;63.43;95174.44;5072536;28;20047;-75
2023/09/30 04:16:33;;;;;;;6.35;4.72;;;;;;;13.25;64.33;95196.38;5057371;28;20040;-75
2023/09/30 04:18:59;;;;;;;8.93;5.30;;;;;;;13.09;64.30;95192.53;5073523;28;20035;-74
2023/09/30 04:21:24;;;;;;;8.02;5.07;;;;;;;12.81;65.17;95203.66;5080422;28;20032;-74
2023/09/30 04:23:50;;;;;;;6.15;4.93;;;;;;;12.75;65.33;95199.78;5070223;28;20241;-75
2023/09/30 04:26:15;;;;;;;7.55;4.60;;;;;;;12.84;64.97;95204.22;5071153;28;20025;-74
2023/09/30 04:28:41;;;;;;;8.13;5.00;;;;;;;12.79;64.84;95208.16;5070240;28;20486;-75
2023/09/30 04:31:07;;;;;;;6.28;4.57;;;;;;;12.75;64.94;95195.41;5069879;28;20028;-75
2023/09/30 04:33:35;;;;;;;8.13;4.70;;;;;;;12.40;65.86;95193.19;5053069;28;20529;-75
2023/09/30 04:36:01;;;;;;;8.07;4.97;;;;;;;12.61;65.63;95202.75;5037039;28;20031;-75
2023/09/30 04:38:26;;;;;;;11.13;5.28;;;;;;;12.14;66.79;95210.16;5055187;28;20043;-74
2023/09/30 04:40:54;;;;;;;10.32;5.38;;;;;;;12.11;66.64;95202.59;5088558;28;20433;-74
2023/09/30 04:43:19;;;;;;;6.70;5.03;;;;;;;12.07;66.69;95189.00;5088507;28;20398;-74
2023/09/30 04:45:45;;;;;;;11.43;5.20;;;;;;;12.27;66.29;95214.22;5075207;28;20085;-75
2023/09/30 04:48:10;;;;;;;8.38;5.13;;;;;;;12.37;65.98;95222.09;5071047;28;20028;-75
2023/09/30 04:50:41;;;;;;;7.63;4.97;;;;;;;12.19;66.84;95221.84;5082406;28;20067;-75
2023/09/30 04:53:07;;;;;;;7.28;4.43;;;;;;;12.20;65.93;95214.84;5068193;28;20067;-74
2023/09/30 04:55:33;;;;;;;9.07;5.03;;;;;;;12.10;66.24;95208.75;5086364;28;20040;-75
2023/09/30 04:57:58;;;;;;;9.18;5.30;;;;;;;11.88;67.31;95230.53;5056798;28;20431;-75
2023/09/30 05:00:28;;;;;;;6.38;5.38;;;;;;;11.98;67.22;95224.44;5052548;28;20060;-75
2023/09/30 05:02:55;;;;;;;7.07;4.72;;;;;;;11.65;67.24;95188.94;5058480;28;20036;-75
2023/09/30 05:05:20;;;;;;;9.05;4.75;;;;;;;12.08;67.04;95233.13;5077348;28;20032;-75
2023/09/30 05:07:47;;;;;;;8.80;4.55;;;;;;;11.94;67.53;95217.81;5060746;28;20033;-72
2023/09/30 05:10:15;;;;;;;6.35;4.50;;;;;;;12.13;67.03;95231.94;5067153;28;20063;-74
2023/09/30 05:12:45;;;;;;;7.00;4.70;;;;;;;12.12;67.04;95222.47;5075270;28;20028;-75
2023/09/30 05:15:11;;;;;;;6.20;4.82;;;;;;;12.26;67.25;95230.00;5073991;28;20027;-73
2023/09/30 05:17:37;;;;;;;8.15;4.55;;;;;;;12.20;66.56;95230.47;5084398;28;20103;-72
2023/09/30 05:20:06;;;;;;;6.55;4.72;;;;;;;12.09;67.29;95205.34;5075976;28;20478;-78
2023/09/30 05:22:33;;;;;;;6.93;4.38;;;;;;;12.28;67.25;95235.88;5067945;28;20513;-74
2023/09/30 05:24:58;;;;;;;6.28;4.85;;;;;;;11.91;68.11;95236.31;5090722;28;20028;-74
2023/09/30 05:27:24;;;;;;;6.10;4.70;;;;;;;12.16;67.79;95236.91;5067796;28;20029;-73
2023/09/30 05:29:49;;;;;;;6.90;4.38;;;;;;;12.11;68.10;95239.88;5076198;28;20028;-73
2023/09/30 05:32:15;;;;;;;6.13;4.72;;;;;;;11.89;68.33;95222.56;5088144;28;20058;-72
2023/09/30 05:34:40;;;;;;;10.85;5.00;;;;;;;12.34;67.11;95231.94;5078159;28;20032;-75
2023/09/30 05:37:05;;;;;;;5.93;4.82;;;;;;;12.64;66.74;95228.53;5088988;28;20493;-73
2023/09/30 05:39:31;;;;;;;7.68;5.07;;;;;;;13.11;65.86;95234.09;5081446;28;20725;-73
2023/09/30 05:42:00;;;;;;;6.70;4.57;;;;;;;13.32;64.61;95239.28;5083073;28;20028;-76
2023/09/30 05:44:27;;;;;;;7.25;4.70;;;;;;;14.14;62.19;95230.28;5086341;28;20103;-74
2023/09/30 05:46:53;;;;;;;6.32;4.55;;;;;;;15.06;59.50;95240.16;5060212;28;20127;-72
2023/09/30 05:49:19;;;;;;;8.93;5.40;;;;;;;15.72;56.97;95239.13;5077553;28;20425;-72
2023/09/30 05:51:46;;;;;;;12.85;5.32;;;;;;;16.52;55.80;95235.56;5079741;28;20024;-71
2023/09/30 05:54:11;;;;;;;11.82;4.88;;;;;;;16.82;53.40;95243.97;5080339;28;20036;-72
2023/09/30 05:56:37;;;;;;;7.22;4.60;;;;;;;17.79;51.46;95236.69;5079677;28;20079;-73
2023/09/30 05:59:04;;;;;;;7.53;4.25;;;;;;;18.75;49.25;95229.03;5070992;28;20118;-73
2023/09/30 06:01:33;;;;;;;12.27;5.70;;;;;;;19.74;46.46;95232.16;5039110;28;20059;-75
2023/09/30 06:03:59;;;;;;;10.13;4.45;;;;;;;20.56;44.99;95233.41;5052751;28;20029;-76
2023/09/30 06:06:26;;;;;;;8.55;4.50;;;;;;;21.31;42.69;95246.53;5086015;28;20029;-77
2023/09/30 06:08:53;;;;;;;10.85;5.32;;;;;;;21.78;40.95;95221.50;5090428;28;20085;-73
2023/09/30 06:11:19;;;;;;;5.43;4.22;;;;;;;22.40;40.92;95233.38;5091843;28;20500;-76
2023/09/30 06:13:46;;;;;;;15.27;4.93;;;;;;;23.17;38.98;95245.78;5086543;28;20047;-78
2023/09/30 06:16:12;;;;;;;8.10;4.30;;;;;;;23.72;38.22;95247.72;5086205;28;20085;-75
2023/09/30 06:18:38;;;;;;;10.98;4.75;;;;;;;24.24;37.56;95247.06;5074453;28;20768;-76
2023/09/30 06:21:03;;;;;;;7.20;4.35;;;;;;;23.92;37.41;95243.31;5071121;28;20448;-77
2023/09/30 06:23:29;;;;;;;11.48;4.65;;;;;;;23.91;37.75;95244.31;5067196;28;20124;-75
2023/09/30 06:25:55;;;;;;;9.82;4.97;;;;;;;24.12;36.45;95247.84;5081244;28;20063;-74
2023/09/30 06:28:25;;;;;;;11.77;5.60;;;;;;;25.05;36.20;95247.94;5069390;28;20024;-75
2023/09/30 06:30:51;;;;;;;11.48;5.35;;;;;;;25.32;34.49;95244.22;5078061;28;20059;-73
2023/09/30 06:33:17;;;;;;;14.23;5.18;;;;;;;25.93;33.59;95251.00;5065993;28;20068;-73
2023/09/30 06:35:50;;;;;;;9.95;4.30;;;;;;;26.59;33.65;95251.69;5088969;28;20489;-73
2023/09/30 06:38:17;;;;;;;8.85;5.00;;;;;;;26.62;33.23;95254.72;5083045;28;20032;-76
2023/09/30 06:40:42;;;;;;;14.90;5.43;;;;;;;27.11;31.66;95244.28;5093718;28;20028;-72
2023/09/30 06:43:08;;;;;;;11.70;5.38;;;;;;;27.51;32.06;95251.91;5088526;28;20421;-72
2023/09/30 06:45:34;;;;;;;9.48;3.85;;;;;;;27.94;32.07;95251.81;5088412;28;20403;-73
2023/09/30 06:47:59;;;;;;;11.82;5.75;;;;;;;27.90;29.79;95250.66;5076863;28;20065;-72
2023/09/30 06:50:24;;;;;;;10.10;5.13;;;;;;;27.80;29.96;95251.19;5067646;28;20037;-73
2023/09/30 06:52:50;;;;;;;10.25;4.63;;;;;;;27.93;30.90;95255.53;5071963;28;20054;-72
2023/09/30 06:55:16;;;;;;;9.50;4.55;;;;;;;27.95;31.85;95248.13;5073389;28;20020;-72
2023/09/30 06:57:42;;;;;;;6.70;3.65;;;;;;;27.70;32.35;95252.72;5071988;28;20414;-72
2023/09/30 07:00:11;;;;;;;7.45;4.07;;;;;;;27.01;32.91;95226.13;5071788;28;20048;-73
2023/09/30 07:02:37;;;;;;;7.20;3.95;;;;;;;26.65;33.83;95261.47;5071810;28;20107;-73
2023/09/30 07:05:12;;;;;;;8.80;4.18;;;;;;;26.04;34.36;95254.84;5073203;28;20039;-72
2023/09/30 07:07:39;;;;;;;8.25;4.05;;;;;;;25.70;35.20;95267.44;5071850;28;20035;-72
2023/09/30 07:10:05;;;;;;;11.80;7.05;;;;;;;25.44;34.44;95263.03;5073224;28;20024;-72
2023/09/30 07:12:35;;;;;;;8.50;4.50;;;;;;;25.47;34.27;95269.78;5081955;28;20101;-73
2023/09/30 07:15:02;;;;;;;12.82;4.43;;;;;;;25.13;34.40;95261.00;5070353;28;20487;-72
2023/09/30 07:17:27;;;;;;;7.95;4.70;;;;;;;24.82;32.97;95269.59;5053734;28;20028;-72
2023/09/30 07:19:53;;;;;;;9.13;4.40;;;;;;;24.68;32.63;95264.31;5071074;28;20063;-72
2023/09/30 07:22:18;;;;;;;10.45;4.88;;;;;;;24.24;34.79;95232.97;5055600;28;20509;-73
2023/09/30 07:24:44;;;;;;;11.23;4.97;;;;;;;23.94;34.91;95267.81;5065482;28;20043;-72
2023/09/30 07:27:09;;;;;;;12.95;5.15;;;;;;;23.16;35.95;95272.47;5054158;28;20039;-72
2023/09/30 07:29:35;;;;;;;13.02;5.57;;;;;;;22.86;36.86;95269.16;5072772;28;20036;-71
2023/09/30 07:32:00;;;;;;;11.35;5.05;;;;;;;23.10;37.26;95263.47;5070919;28;20028;-72
2023/09/30 07:34:26;;;;;;;10.02;5.60;;;;;;;23.08;36.22;95273.44;5070249;28;20048;-72
2023/09/30 07:36:52;;;;;;;7.85;4.78;;;;;;;22.73;37.36;95276.00;5071264;28;20062;-72
2023/09/30 07:39:17;;;;;;;10.77;5.65;;;;;;;22.81;37.96;95255.69;5072082;28;20051;-72
2023/09/30 07:41:42;;;;;;;11.93;5.47;;;;;;;22.81;37.92;95271.56;5069067;28;20036;-72
2023/09/30 07:44:09;;;;;;;11.95;5.45;;;;;;;22.71;37.83;95270.09;5069088;28;20028;-72
2023/09/30 07:46:35;;;;;;;11.52;5.45;;;;;;;22.92;36.21;95265.75;5068892;28;20283;-72
2023/09/30 07:49:00;;;;;;;8.75;5.10;;;;;;;23.04;36.23;95271.34;5052309;28;20272;-72
2023/09/30 07:51:26;;;;;;;10.52;5.25;;;;;;;22.93;36.96;95284.09;5068705;28;20032;-72
2023/09/30 07:53:52;;;;;;;11.15;5.20;;;;;;;22.78;37.55;95277.25;5051819;28;20024;-72
2023/09/30 07:56:17;;;;;;;7.00;4.88;;;;;;;22.53;38.53;95281.09;5071806;28;20033;-72
2023/09/30 07:58:43;;;;;;;12.00;4.97;;;;;;;22.62;38.22;95270.38;5070675;28;20028;-73
2023/09/30 08:01:08;;;;;;;11.50;5.60;;;;;;;22.45;37.99;95261.88;5070628;28;20048;-72
2023/09/30 08:03:34;;;;;;;8.48;4.53;;;;;;;22.87;38.61;95270.78;5037303;28;20040;-72
2023/09/30 08:06:00;;;;;;;8.57;4.60;;;;;;;23.07;38.47;95271.81;5037429;28;20039;-72
2023/09/30 08:08:25;;;;;;;9.75;5.00;;;;;;;23.18;36.87;95279.22;5071686;28;20025;-72
2023/09/30 08:10:55;;;;;;;10.00;5.00;;;;;;;23.33;36.81;95273.81;5054043;28;20159;-72
2023/09/30 08:13:21;;;;;;;7.83;4.63;;;;;;;23.46;35.90;95278.38;5070261;28;20111;-72
2023/09/30 08:15:46;;;;;;;13.77;4.93;;;;;;;23.20;35.08;95266.56;5071984;28;20027;-72
2023/09/30 08:18:11;;;;;;;8.30;5.32;;;;;;;22.97;35.71;95273.97;5070367;28;20418;-72
2023/09/30 08:20:37;;;;;;;9.00;4.97;;;;;;;23.05;35.67;95276.47;5053789;28;20398;-72
2023/09/30 08:23:03;;;;;;;11.38;4.47;;;;;;;22.97;34.71;95266.84;5070326;28;20044;-72
2023/09/30 08:25:28;;;;;;;13.18;4.97;;;;;;;23.28;34.89;95272.75;5070345;28;20029;-72
2023/09/30 08:27:54;;;;;;;10.30;4.68;;;;;;;23.50;34.91;95265.53;5071403;28;20486;-72
2023/09/30 08:30:20;;;;;;;10.05;4.40;;;;;;;23.42;34.02;95258.56;5071569;28;20028;-72
2023/09/30 08:32:46;;;;;;;9.80;5.03;;;;;;;23.39;33.29;95261.59;5071249;28;20040;-72
2023/09/30 08:35:13;;;;;;;11.05;4.60;;;;;;;23.37;32.82;95266.28;5070117;28;20402;-72
2023/09/30 08:37:39;;;;;;;8.95;4.30;;;;;;;23.47;32.72;95264.09;5070077;28;20036;-72
2023/09/30 08:40:09;;;;;;;7.38;4.85;;;;;;;23.28;32.35;95262.16;5071335;28;20035;-72
2023/09/30 08:42:35;;;;;;;10.10;5.20;;;;;;;23.44;32.55;95274.28;5071202;28;20033;-71
2023/09/30 08:45:00;;;;;;;9.40;5.63;;;;;;;23.32;31.45;95264.22;5069901;28;20333;-72
2023/09/30 08:47:27;;;;;;;10.20;5.32;;;;;;;23.49;31.62;95255.97;5069935;28;20029;-71
2023/09/30 08:49:56;;;;;;;12.27;5.63;;;;;;;23.38;32.44;95228.16;5069902;28;20025;-72
2023/09/30 08:52:22;;;;;;;8.98;5.30;;;;;;;23.54;33.01;95257.00;5053717;28;20033;-72
2023/09/30 08:54:47;;;;;;;9.73;5.40;;;;;;;23.74;33.42;95257.13;5053070;28;20042;-72
2023/09/30 08:57:12;;;;;;;13.35;5.93;;;;;;;23.52;31.80;95255.56;5071062;28;20482;-72
2023/09/30 08:59:38;;;;;;;13.70;6.13;;;;;;;23.38;31.81;95250.19;5052917;28;20151;-72
2023/09/30 09:02:07;;;;;;;8.55;5.55;;;;;;;23.20;30.84;95237.44;5052966;28;20028;-71
2023/09/30 09:04:34;;;;;;;6.78;5.30;;;;;;;23.08;31.83;95214.34;5069861;28;20110;-71
2023/09/30 09:06:59;;;;;;;9.77;5.53;;;;;;;23.34;32.19;95253.41;5069692;28;20024;-71
2023/09/30 09:09:25;;;;;;;8.40;5.43;;;;;;;23.33;30.91;95249.13;5070915;28;20556;-71
2023/09/30 09:11:51;;;;;;;15.50;5.40;;;;;;;23.54;30.09;95241.09;5069632;28;20028;-71
2023/09/30 09:14:16;;;;;;;10.10;5.60;;;;;;;23.64;29.97;95235.41;5052886;28;20433;-71
2023/09/30 09:16:52;;;;;;;10.20;5.80;;;;;;;23.68;31.82;95241.97;5052958;28;20028;-72
2023/09/30 09:19:18;;;;;;;11.27;5.93;;;;;;;23.49;30.80;95238.22;5070607;28;20097;-71
2023/09/30 09:21:55;;;;;;;12.35;6.50;;;;;;;23.38;31.97;95220.22;5069559;28;20461;-71
2023/09/30 09:24:30;;;;;;;14.50;6.10;;;;;;;23.69;31.89;95224.22;5070749;28;20036;-72
2023/09/30 09:27:08;;;;;;;8.90;5.70;;;;;;;23.59;31.20;95241.31;5069500;28;20048;-71
2023/09/30 09:29:37;;;;;;;11.27;5.53;;;;;;;23.53;31.02;95231.50;5070571;28;20051;-72
2023/09/30 09:32:08;;;;;;;7.93;5.50;;;;;;;23.64;31.84;95230.94;5069421;28;20119;-71
2023/09/30 09:34:33;;;;;;;12.45;5.95;;;;;;;23.94;32.03;95235.97;5069313;28;20103;-72
2023/09/30 09:36:58;;;;;;;9.05;6.10;;;;;;;23.66;30.74;95228.09;5071610;28;20028;-71
2023/09/30 09:39:34;;;;;;;13.75;6.75;;;;;;;23.70;30.93;95234.63;5056785;28;20036;-72
2023/09/30 09:42:01;;;;;;;10.02;5.22;;;;;;;23.79;31.05;95235.28;5074584;28;20454;-71
2023/09/30 09:44:26;;;;;;;7.05;5.30;;;;;;;23.85;28.83;95224.72;5077331;28;20032;-72
2023/09/30 09:46:52;;;;;;;10.45;4.55;;;;;;;23.53;29.81;95220.88;5073683;28;20033;-72
2023/09/30 09:49:18;;;;;;;10.45;5.88;;;;;;;23.34;31.16;95216.31;5059367;28;20035;-72
2023/09/30 09:51:44;;;;;;;12.07;5.95;;;;;;;23.49;31.26;95217.00;5089180;28;20502;-71
2023/09/30 09:54:10;;;;;;;8.80;4.65;;;;;;;23.10;30.62;95176.03;5082934;28;20188;-72
2023/09/30 09:56:35;;;;;;;8.70;4.47;;;;;;;23.58;29.37;95221.13;5072086;28;20510;-73
2023/09/30 09:59:03;;;;;;;5.57;3.90;;;;;;;23.80;28.23;95215.72;5055648;28;20070;-72
2023/09/30 10:01:30;;;;;;;9.95;4.15;;;;;;;23.43;29.83;95193.94;5055844;28;20051;-72
2023/09/30 10:03:55;;;;;;;8.13;4.30;;;;;;;23.51;29.67;95220.25;5054997;28;20119;-72
2023/09/30 10:06:22;;;;;;;13.68;7.32;;;;;;;23.39;29.96;95206.75;5056094;28;20403;-71
2023/09/30 10:08:48;;;;;;;10.48;4.63;;;;;;;23.43;31.14;95212.50;5056221;28;20032;-71
2023/09/30 10:11:20;;;;;;;13.50;4.80;;;;;;;23.43;30.07;95204.56;5071474;28;20078;-72
2023/09/30 10:14:00;;;;;;;9.75;4.72;;;;;;;23.44;29.38;95198.22;5070637;28;20117;-71
2023/09/30 10:16:34;;;;;;;;;;;;;;;23.56;29.18;95195.81;5074246;28;20032;-72
2023/09/30 10:19:12;;;;;;;7.13;4.28;;;;;;;23.64;30.47;95195.66;5091995;28;20370;-72
2023/09/30 10:21:37;;;;;;;6.10;3.80;;;;;;;23.66;30.12;95188.31;5090872;28;20028;-72
2023/09/30 10:24:25;;;;;;;8.00;4.45;;;;;;;23.67;30.16;95191.78;5092035;28;20425;-73
2023/09/30 10:27:21;;;;;;;9.95;4.40;;;;;;;23.77;29.80;95184.31;5092957;28;20032;-72
2023/09/30 10:29:47;;;;;;;7.88;5.20;;;;;;;23.64;29.80;95180.53;5093892;28;20036;-71
2023/09/30 10:32:13;;;;;;;13.05;4.40;;;;;;;23.75;29.49;95175.72;5092725;28;20037;-72
2023/09/30 10:34:38;;;;;;;5.55;3.50;;;;;;;23.79;29.11;95179.59;5092578;28;20490;-72
2023/09/30 10:37:25;;;;;;;10.43;3.60;;;;;;;23.91;28.94;95178.00;5075757;28;20077;-71
2023/09/30 10:39:58;;;;;;;10.27;4.25;;;;;;;23.89;28.77;95158.81;5076184;28;20020;-72
2023/09/30 10:42:44;;;;;;;6.15;3.92;;;;;;;24.08;29.24;95151.91;5076160;28;20039;-71
2023/09/30 10:45:38;;;;;;;6.60;3.97;;;;;;;24.06;28.37;95162.72;5093819;28;20115;-71
2023/09/30 10:48:26;;;;;;;7.15;3.17;;;;;;;24.01;27.77;95154.53;5092373;28;20038;-71
2023/09/30 10:50:56;;;;;;;5.70;3.30;;;;;;;23.90;27.80;95149.84;5092364;28;20032;-71
2023/09/30 10:53:22;;;;;;;5.70;3.30;;;;;;;23.73;28.32;95143.28;5093449;28;20032;-71
2023/09/30 10:56:01;;;;;;;7.95;3.25;;;;;;;23.85;27.91;95152.28;5092347;28;20123;-71
2023/09/30 10:58:43;;;;;;;6.63;3.15;;;;;;;24.03;27.95;95152.50;5092246;28;20509;-71
2023/09/30 11:01:09;;;;;;;7.40;2.70;;;;;;;24.09;26.38;95146.38;5093322;28;20143;-72
2023/09/30 11:03:34;;;;;;;5.95;2.70;;;;;;;24.02;26.94;95145.59;5092101;28;20044;-73
2023/09/30 11:06:00;;;;;;;4.82;3.00;;;;;;;23.91;26.49;95138.22;5093646;28;20032;-72
2023/09/30 11:08:25;;;;;;;5.60;3.03;;;;;;;23.89;26.65;95137.59;5091903;28;20024;-72
2023/09/30 11:10:52;;;;;;;4.95;2.78;;;;;;;23.90;27.29;95146.38;5065802;28;20036;-72
2023/09/30 11:13:18;;;;;;;5.45;2.97;;;;;;;23.86;27.84;95145.97;5090850;28;20039;-72
2023/09/30 11:15:47;;;;;;;6.63;2.67;;;;;;;23.77;26.28;95136.56;5091363;28;20032;-72
2023/09/30 11:18:16;;;;;;;7.57;2.80;;;;;;;23.82;26.62;95144.72;5074869;28;20028;-71
2023/09/30 11:20:42;;;;;;;4.28;2.80;;;;;;;23.64;26.41;95129.34;5075075;28;20093;-71
2023/09/30 11:23:08;;;;;;;6.75;3.03;;;;;;;23.73;27.12;95133.47;5093096;28;20024;-72
2023/09/30 11:25:37;;;;;;;8.55;3.13;;;;;;;23.62;26.88;95137.53;5074830;28;20055;-71
2023/09/30 11:28:18;;;;;;;5.03;2.75;;;;;;;23.68;26.76;95135.06;5064102;28;20032;-71
2023/09/30 11:31:00;;;;;;;7.63;2.75;;;;;;;23.71;27.29;95126.75;5084159;28;20497;-69